sensor_id;sensor_type;location;lat;lon;timestamp;pressure;altitude;pressure_sealevel;temperature;humidity
9257;BME280;4665;51.368;6.782;2023-05-08T00:00:21;101745.72;;;15.24;100.00
9257;BME280;4665;51.368;6.782;2023-05-08T00:02:47;101748.41;;;15.24;100.00
9257;BME280;4665;51.368;6.782;2023-05-08T00:05:12;101734.78;;;15.18;100.00
9257;BME280;4665;51.368;6.782;2023-05-08T00:07:38;101739.88;;;15.21;100.00
9257;BME280;4665;51.368;6.782;2023-05-08T00:10:04;101728.25;;;15.12;100.00
9257;BME280;4665;51.368;6.782;2023-05-08T00:12:30;101746.91;;;15.22;100.00
9257;BME280;4665;51.368;6.782;2023-05-08T00:14:55;101748.22;;;15.18;100.00
9257;BME280;4665;51.368;6.782;2023-05-08T00:17:21;101741.31;;;15.15;100.00
9257;BME280;4665;51.368;6.782;2023-05-08T00:19:47;101722.31;;;15.00;100.00
9257;BME280;4665;51.368;6.782;2023-05-08T00:22:12;101739.13;;;15.10;100.00
9257;BME280;4665;51.368;6.782;2023-05-08T00:24:37;101731.75;;;15.04;100.00
9257;BME280;4665;51.368;6.782;2023-05-08T00:27:03;101742.50;;;15.12;100.00
9257;BME280;4665;51.368;6.782;2023-05-08T00:29:28;101740.28;;;15.08;100.00
9257;BME280;4665;51.368;6.782;2023-05-08T00:31:54;101752.19;;;15.05;100.00
9257;BME280;4665;51.368;6.782;2023-05-08T00:34:19;101755.03;;;15.04;100.00
9257;BME280;4665;51.368;6.782;2023-05-08T00:36:44;101748.81;;;15.03;100.00
9257;BME280;4665;51.368;6.782;2023-05-08T00:39:10;101748.69;;;15.05;100.00
9257;BME280;4665;51.368;6.782;2023-05-08T00:41:35;101748.34;;;15.08;100.00
9257;BME280;4665;51.368;6.782;2023-05-08T00:44:01;101755.91;;;15.04;100.00
9257;BME280;4665;51.368;6.782;2023-05-08T00:46:26;101745.47;;;15.01;100.00
9257;BME280;4665;51.368;6.782;2023-05-08T00:48:52;101755.03;;;15.04;100.00
9257;BME280;4665;51.368;6.782;2023-05-08T00:51:17;101749.66;;;15.04;100.00
9257;BME280;4665;51.368;6.782;2023-05-08T00:53:43;101753.91;;;15.06;100.00
9257;BME280;4665;51.368;6.782;2023-05-08T00:56:12;101753.91;;;15.06;100.00
9257;BME280;4665;51.368;6.782;2023-05-08T00:58:39;101754.72;;;15.07;100.00
9257;BME280;4665;51.368;6.782;2023-05-08T01:01:05;101754.03;;;15.05;100.00
9257;BME280;4665;51.368;6.782;2023-05-08T01:03:31;101749.38;;;15.07;100.00
9257;BME280;4665;51.368;6.782;2023-05-08T01:05:58;101756.41;;;15.08;100.00
9257;BME280;4665;51.368;6.782;2023-05-08T01:08:24;101754.88;;;15.05;100.00
9257;BME280;4665;51.368;6.782;2023-05-08T01:16:16;101745.47;;;15.01;100.00
9257;BME280;4665;51.368;6.782;2023-05-08T01:18:49;101749.00;;;15.02;100.00
9257;BME280;4665;51.368;6.782;2023-05-08T01:21:23;101750.81;;;15.01;100.00
9257;BME280;4665;51.368;6.782;2023-05-08T01:25:06;101750.81;;;15.01;100.00
9257;BME280;4665;51.368;6.782;2023-05-08T01:32:29;101753.00;;;14.98;100.00
9257;BME280;4665;51.368;6.782;2023-05-08T01:37:49;101760.38;;;14.96;100.00
9257;BME280;4665;51.368;6.782;2023-05-08T01:40:27;101763.19;;;14.94;100.00
9257;BME280;4665;51.368;6.782;2023-05-08T01:43:12;101765.06;;;14.93;100.00
9257;BME280;4665;51.368;6.782;2023-05-08T01:45:39;101760.84;;;14.91;100.00
9257;BME280;4665;51.368;6.782;2023-05-08T01:48:18;101768.22;;;14.89;100.00
9257;BME280;4665;51.368;6.782;2023-05-08T01:50:46;101764.84;;;14.87;100.00
9257;BME280;4665;51.368;6.782;2023-05-08T01:53:22;101761.47;;;14.85;100.00
9257;BME280;4665;51.368;6.782;2023-05-08T01:55:52;101766.34;;;14.81;100.00
9257;BME280;4665;51.368;6.782;2023-05-08T01:58:19;101767.50;;;14.79;100.00
9257;BME280;4665;51.368;6.782;2023-05-08T02:00:45;101765.09;;;14.76;100.00
9257;BME280;4665;51.368;6.782;2023-05-08T02:03:13;101767.78;;;14.76;100.00
9257;BME280;4665;51.368;6.782;2023-05-08T02:05:40;101770.94;;;14.71;100.00
9257;BME280;4665;51.368;6.782;2023-05-08T02:08:11;101773.13;;;14.67;100.00
9257;BME280;4665;51.368;6.782;2023-05-08T02:10:37;101770.56;;;14.66;100.00
9257;BME280;4665;51.368;6.782;2023-05-08T02:13:05;101771.59;;;14.65;100.00
9257;BME280;4665;51.368;6.782;2023-05-08T02:15:32;101776.09;;;14.64;100.00
9257;BME280;4665;51.368;6.782;2023-05-08T02:18:02;101773.59;;;14.63;100.00
9257;BME280;4665;51.368;6.782;2023-05-08T02:20:29;101786.31;;;14.61;100.00
9257;BME280;4665;51.368;6.782;2023-05-08T02:22:56;101790.28;;;14.57;100.00
9257;BME280;4665;51.368;6.782;2023-05-08T02:25:22;101793.16;;;14.55;100.00
9257;BME280;4665;51.368;6.782;2023-05-08T02:27:50;101792.28;;;14.55;100.00
9257;BME280;4665;51.368;6.782;2023-05-08T02:30:18;101786.91;;;14.55;100.00
9257;BME280;4665;51.368;6.782;2023-05-08T02:32:45;101793.16;;;14.55;100.00
9257;BME280;4665;51.368;6.782;2023-05-08T02:35:14;101792.44;;;14.53;100.00
9257;BME280;4665;51.368;6.782;2023-05-08T02:37:45;101788.88;;;14.52;100.00
9257;BME280;4665;51.368;6.782;2023-05-08T02:40:13;101791.75;;;14.51;100.00
9257;BME280;4665;51.368;6.782;2023-05-08T02:42:38;101788.03;;;14.52;100.00
9257;BME280;4665;51.368;6.782;2023-05-08T02:45:05;101793.72;;;14.49;100.00
9257;BME280;4665;51.368;6.782;2023-05-08T02:47:59;101794.72;;;14.48;100.00
9257;BME280;4665;51.368;6.782;2023-05-08T02:50:36;101796.72;;;14.46;100.00
9257;BME280;4665;51.368;6.782;2023-05-08T02:53:07;101789.66;;;14.45;100.00
9257;BME280;4665;51.368;6.782;2023-05-08T02:55:45;101786.28;;;14.43;100.00
9257;BME280;4665;51.368;6.782;2023-05-08T02:58:47;101782.94;;;14.41;100.00
9257;BME280;4665;51.368;6.782;2023-05-08T03:01:24;101777.75;;;14.39;100.00
9257;BME280;4665;51.368;6.782;2023-05-08T03:04:05;101784.91;;;14.39;100.00
9257;BME280;4665;51.368;6.782;2023-05-08T03:06:44;101784.25;;;14.37;100.00
9257;BME280;4665;51.368;6.782;2023-05-08T03:09:22;101782.69;;;14.34;100.00
9257;BME280;4665;51.368;6.782;2023-05-08T03:11:54;101776.34;;;14.35;100.00
9257;BME280;4665;51.368;6.782;2023-05-08T03:14:25;101775.66;;;14.33;100.00
9257;BME280;4665;51.368;6.782;2023-05-08T03:16:54;101784.03;;;14.30;100.00
9257;BME280;4665;51.368;6.782;2023-05-08T03:19:33;101769.09;;;14.27;100.00
9257;BME280;4665;51.368;6.782;2023-05-08T03:22:01;101776.44;;;14.25;100.00
9257;BME280;4665;51.368;6.782;2023-05-08T03:24:28;101770.53;;;14.22;100.00
9257;BME280;4665;51.368;6.782;2023-05-08T03:26:55;101771.69;;;14.19;100.00
9257;BME280;4665;51.368;6.782;2023-05-08T03:29:24;101774.53;;;14.18;100.00
9257;BME280;4665;51.368;6.782;2023-05-08T03:31:51;101769.63;;;14.13;100.00
9257;BME280;4665;51.368;6.782;2023-05-08T03:34:18;101771.78;;;14.09;100.00
9257;BME280;4665;51.368;6.782;2023-05-08T03:36:45;101766.75;;;14.06;100.00
9257;BME280;4665;51.368;6.782;2023-05-08T03:39:10;101769.72;;;14.03;100.00
9257;BME280;4665;51.368;6.782;2023-05-08T03:41:36;101769.00;;;14.01;100.00
9257;BME280;4665;51.368;6.782;2023-05-08T03:44:02;101776.81;;;13.95;100.00
9257;BME280;4665;51.368;6.782;2023-05-08T03:46:30;101772.41;;;13.85;100.00
9257;BME280;4665;51.368;6.782;2023-05-08T03:48:56;101771.72;;;13.83;100.00
9257;BME280;4665;51.368;6.782;2023-05-08T03:51:25;101767.50;;;13.81;100.00
9257;BME280;4665;51.368;6.782;2023-05-08T03:53:50;101765.09;;;13.78;100.00
9257;BME280;4665;51.368;6.782;2023-05-08T03:56:15;101776.59;;;13.70;100.00
9257;BME280;4665;51.368;6.782;2023-05-08T04:01:22;101780.94;;;13.71;100.00
9257;BME280;4665;51.368;6.782;2023-05-08T04:06:34;101783.94;;;13.68;100.00
9257;BME280;4665;51.368;6.782;2023-05-08T04:09:16;101780.69;;;13.64;100.00
9257;BME280;4665;51.368;6.782;2023-05-08T04:14:33;101777.50;;;13.61;100.00
9257;BME280;4665;51.368;6.782;2023-05-08T04:17:04;101791.31;;;13.56;100.00
9257;BME280;4665;51.368;6.782;2023-05-08T04:19:33;101785.41;;;13.53;100.00
9257;BME280;4665;51.368;6.782;2023-05-08T04:22:06;101787.94;;;13.54;100.00
9257;BME280;4665;51.368;6.782;2023-05-08T04:24:34;101781.06;;;13.52;100.00
9257;BME280;4665;51.368;6.782;2023-05-08T04:27:02;101779.22;;;13.52;100.00
9257;BME280;4665;51.368;6.782;2023-05-08T04:29:28;101779.22;;;13.52;100.00
9257;BME280;4665;51.368;6.782;2023-05-08T04:31:55;101783.44;;;13.55;100.00
9257;BME280;4665;51.368;6.782;2023-05-08T04:34:21;101777.09;;;13.56;100.00
9257;BME280;4665;51.368;6.782;2023-05-08T04:36:47;101782.16;;;13.59;100.00
9257;BME280;4665;51.368;6.782;2023-05-08T04:39:13;101794.38;;;13.61;100.00
9257;BME280;4665;51.368;6.782;2023-05-08T04:41:38;101790.88;;;13.61;100.00
9257;BME280;4665;51.368;6.782;2023-05-08T04:44:04;101781.13;;;13.60;100.00
9257;BME280;4665;51.368;6.782;2023-05-08T04:46:30;101790.41;;;13.65;100.00
9257;BME280;4665;51.368;6.782;2023-05-08T04:48:55;101792.66;;;13.70;100.00
9257;BME280;4665;51.368;6.782;2023-05-08T04:51:20;101798.53;;;13.74;100.00
9257;BME280;4665;51.368;6.782;2023-05-08T04:53:46;101789.59;;;13.65;100.00
9257;BME280;4665;51.368;6.782;2023-05-08T04:56:11;101795.84;;;13.74;100.00
9257;BME280;4665;51.368;6.782;2023-05-08T04:58:36;101806.13;;;13.78;100.00
9257;BME280;4665;51.368;6.782;2023-05-08T05:01:03;101805.84;;;13.81;100.00
9257;BME280;4665;51.368;6.782;2023-05-08T05:03:28;101807.38;;;13.84;100.00
9257;BME280;4665;51.368;6.782;2023-05-08T05:05:58;101812.59;;;13.85;100.00
9257;BME280;4665;51.368;6.782;2023-05-08T05:08:24;101816.94;;;13.86;100.00
9257;BME280;4665;51.368;6.782;2023-05-08T05:10:50;101815.91;;;13.87;100.00
9257;BME280;4665;51.368;6.782;2023-05-08T05:13:15;101819.28;;;13.89;100.00
9257;BME280;4665;51.368;6.782;2023-05-08T05:15:41;101819.03;;;13.93;100.00
9257;BME280;4665;51.368;6.782;2023-05-08T05:18:07;101812.59;;;13.85;100.00
9257;BME280;4665;51.368;6.782;2023-05-08T05:20:32;101826.75;;;13.96;100.00
9257;BME280;4665;51.368;6.782;2023-05-08T05:22:58;101818.56;;;13.97;100.00
9257;BME280;4665;51.368;6.782;2023-05-08T05:25:23;101818.38;;;13.99;100.00
9257;BME280;4665;51.368;6.782;2023-05-08T05:27:49;101815.56;;;14.00;100.00
9257;BME280;4665;51.368;6.782;2023-05-08T05:30:14;101814.56;;;14.01;100.00
9257;BME280;4665;51.368;6.782;2023-05-08T05:32:40;101823.16;;;14.05;100.00
9257;BME280;4665;51.368;6.782;2023-05-08T05:35:06;101827.34;;;14.07;100.00
9257;BME280;4665;51.368;6.782;2023-05-08T05:37:31;101830.19;;;14.06;100.00
9257;BME280;4665;51.368;6.782;2023-05-08T05:39:56;101832.41;;;14.10;100.00
9257;BME280;4665;51.368;6.782;2023-05-08T05:42:22;101824.53;;;14.09;100.00
9257;BME280;4665;51.368;6.782;2023-05-08T05:44:47;101834.38;;;14.08;100.00
9257;BME280;4665;51.368;6.782;2023-05-08T05:47:13;101836.63;;;14.13;100.00
9257;BME280;4665;51.368;6.782;2023-05-08T05:49:38;101833.78;;;14.15;100.00
9257;BME280;4665;51.368;6.782;2023-05-08T05:52:07;101824.53;;;14.09;100.00
9257;BME280;4665;51.368;6.782;2023-05-08T05:54:32;101838.00;;;14.17;100.00
9257;BME280;4665;51.368;6.782;2023-05-08T05:56:58;101821.69;;;14.10;100.00
9257;BME280;4665;51.368;6.782;2023-05-08T05:59:23;101843.47;;;14.25;100.00
9257;BME280;4665;51.368;6.782;2023-05-08T06:01:48;101838.78;;;14.27;100.00
9257;BME280;4665;51.368;6.782;2023-05-08T06:04:14;101840.47;;;14.28;100.00
9257;BME280;4665;51.368;6.782;2023-05-08T06:06:39;101832.97;;;14.32;100.00
9257;BME280;4665;51.368;6.782;2023-05-08T06:09:05;101826.50;;;14.25;100.00
9257;BME280;4665;51.368;6.782;2023-05-08T06:11:31;101843.06;;;14.38;100.00
9257;BME280;4665;51.368;6.782;2023-05-08T06:13:56;101836.72;;;14.39;100.00
9257;BME280;4665;51.368;6.782;2023-05-08T06:16:22;101845.97;;;14.45;100.00
9257;BME280;4665;51.368;6.782;2023-05-08T06:18:49;101816.72;;;14.34;100.00
9257;BME280;4665;51.368;6.782;2023-05-08T06:21:15;101839.44;;;14.47;100.00
9257;BME280;4665;51.368;6.782;2023-05-08T06:23:41;101828.44;;;14.50;100.00
9257;BME280;4665;51.368;6.782;2023-05-08T06:26:07;101811.81;;;14.47;100.00
9257;BME280;4665;51.368;6.782;2023-05-08T06:28:32;101829.22;;;14.61;100.00
9257;BME280;4665;51.368;6.782;2023-05-08T06:30:57;101811.19;;;14.53;100.00
9257;BME280;4665;51.368;6.782;2023-05-08T06:33:23;101825.06;;;14.66;100.00
9257;BME280;4665;51.368;6.782;2023-05-08T06:35:48;101827.81;;;14.75;100.00
9257;BME280;4665;51.368;6.782;2023-05-08T06:38:14;101821.75;;;14.72;100.00
9257;BME280;4665;51.368;6.782;2023-05-08T06:40:43;101850.75;;;14.95;100.00
9257;BME280;4665;51.368;6.782;2023-05-08T06:43:10;101852.06;;;15.17;100.00
9257;BME280;4665;51.368;6.782;2023-05-08T06:45:35;101839.81;;;15.14;100.00
9257;BME280;4665;51.368;6.782;2023-05-08T06:48:01;101822.47;;;15.35;100.00
9257;BME280;4665;51.368;6.782;2023-05-08T06:50:26;101839.69;;;15.58;100.00
9257;BME280;4665;51.368;6.782;2023-05-08T06:52:51;101850.50;;;15.75;100.00
9257;BME280;4665;51.368;6.782;2023-05-08T06:55:20;101847.19;;;15.89;100.00
9257;BME280;4665;51.368;6.782;2023-05-08T06:57:45;101827.06;;;15.93;100.00
9257;BME280;4665;51.368;6.782;2023-05-08T07:00:11;101835.16;;;16.10;100.00
9257;BME280;4665;51.368;6.782;2023-05-08T07:02:36;101840.22;;;16.21;100.00
9257;BME280;4665;51.368;6.782;2023-05-08T07:05:02;101830.47;;;16.20;100.00
9257;BME280;4665;51.368;6.782;2023-05-08T07:07:27;101824.09;;;16.21;100.00
9257;BME280;4665;51.368;6.782;2023-05-08T07:09:53;101838.38;;;16.30;100.00
9257;BME280;4665;51.368;6.782;2023-05-08T07:12:18;101846.28;;;16.39;100.00
9257;BME280;4665;51.368;6.782;2023-05-08T07:14:44;101824.59;;;16.33;100.00
9257;BME280;4665;51.368;6.782;2023-05-08T07:17:09;101840.41;;;16.44;100.00
9257;BME280;4665;51.368;6.782;2023-05-08T07:19:35;101825.44;;;16.25;100.00
9257;BME280;4665;51.368;6.782;2023-05-08T07:22:00;101839.88;;;16.24;100.00
9257;BME280;4665;51.368;6.782;2023-05-08T07:24:26;101851.13;;;16.19;100.00
9257;BME280;4665;51.368;6.782;2023-05-08T07:26:51;101834.13;;;15.94;100.00
9257;BME280;4665;51.368;6.782;2023-05-08T07:29:17;101840.78;;;15.82;100.00
9257;BME280;4665;51.368;6.782;2023-05-08T07:31:44;101836.41;;;15.73;100.00
9257;BME280;4665;51.368;6.782;2023-05-08T07:34:11;101839.28;;;15.71;100.00
9257;BME280;4665;51.368;6.782;2023-05-08T07:36:36;101848.84;;;15.74;100.00
9257;BME280;4665;51.368;6.782;2023-05-08T07:39:02;101863.16;;;15.91;100.00
9257;BME280;4665;51.368;6.782;2023-05-08T07:41:28;101866.38;;;15.94;100.00
9257;BME280;4665;51.368;6.782;2023-05-08T07:43:53;101861.00;;;16.03;100.00
9257;BME280;4665;51.368;6.782;2023-05-08T07:46:19;101859.84;;;16.05;100.00
9257;BME280;4665;51.368;6.782;2023-05-08T07:48:45;101863.38;;;16.22;100.00
9257;BME280;4665;51.368;6.782;2023-05-08T07:51:10;101858.72;;;16.32;100.00
9257;BME280;4665;51.368;6.782;2023-05-08T07:53:36;101846.94;;;16.25;100.00
9257;BME280;4665;51.368;6.782;2023-05-08T07:56:01;101856.38;;;16.29;100.00
9257;BME280;4665;51.368;6.782;2023-05-08T07:58:26;101859.88;;;16.22;100.00
9257;BME280;4665;51.368;6.782;2023-05-08T08:00:52;101869.09;;;16.19;100.00
9257;BME280;4665;51.368;6.782;2023-05-08T08:03:18;101866.41;;;16.11;100.00
9257;BME280;4665;51.368;6.782;2023-05-08T08:05:43;101868.75;;;16.14;100.00
9257;BME280;4665;51.368;6.782;2023-05-08T08:08:09;101870.63;;;16.13;100.00
9257;BME280;4665;51.368;6.782;2023-05-08T08:10:34;101868.75;;;16.14;100.00
9257;BME280;4665;51.368;6.782;2023-05-08T08:13:00;101863.06;;;16.09;100.00
9257;BME280;4665;51.368;6.782;2023-05-08T08:15:28;101859.88;;;16.13;100.00
9257;BME280;4665;51.368;6.782;2023-05-08T08:17:54;101853.81;;;16.19;100.00
9257;BME280;4665;51.368;6.782;2023-05-08T08:20:19;101860.41;;;16.41;100.00
9257;BME280;4665;51.368;6.782;2023-05-08T08:22:45;101853.53;;;16.39;100.00
9257;BME280;4665;51.368;6.782;2023-05-08T08:25:10;101852.16;;;16.51;100.00
9257;BME280;4665;51.368;6.782;2023-05-08T08:27:36;101842.75;;;16.55;100.00
9257;BME280;4665;51.368;6.782;2023-05-08T08:30:02;101842.91;;;16.70;100.00
9257;BME280;4665;51.368;6.782;2023-05-08T08:32:27;101840.75;;;16.74;100.00
9257;BME280;4665;51.368;6.782;2023-05-08T08:34:53;101833.53;;;16.82;100.00
9257;BME280;4665;51.368;6.782;2023-05-08T08:37:18;101817.34;;;16.74;100.00
9257;BME280;4665;51.368;6.782;2023-05-08T08:39:43;101826.25;;;16.75;100.00
9257;BME280;4665;51.368;6.782;2023-05-08T08:42:09;101810.81;;;16.60;100.00
9257;BME280;4665;51.368;6.782;2023-05-08T08:44:34;101839.56;;;16.76;100.00
9257;BME280;4665;51.368;6.782;2023-05-08T08:47:00;101841.41;;;16.84;100.00
9257;BME280;4665;51.368;6.782;2023-05-08T08:49:30;101826.28;;;16.83;100.00
9257;BME280;4665;51.368;6.782;2023-05-08T08:52:01;101829.28;;;16.96;100.00
9257;BME280;4665;51.368;6.782;2023-05-08T08:54:29;101828.13;;;16.99;100.00
9257;BME280;4665;51.368;6.782;2023-05-08T08:57:00;101829.44;;;17.03;100.00
9257;BME280;4665;51.368;6.782;2023-05-08T08:59:27;101833.31;;;17.09;100.00
9257;BME280;4665;51.368;6.782;2023-05-08T09:02:00;101825.56;;;17.06;100.00
9257;BME280;4665;51.368;6.782;2023-05-08T09:04:29;101831.81;;;17.06;100.00
9257;BME280;4665;51.368;6.782;2023-05-08T09:06:56;101830.63;;;17.09;100.00
9257;BME280;4665;51.368;6.782;2023-05-08T09:09:23;101844.88;;;17.25;100.00
9257;BME280;4665;51.368;6.782;2023-05-08T09:11:50;101838.81;;;17.32;100.00
9257;BME280;4665;51.368;6.782;2023-05-08T09:14:16;101835.09;;;17.33;100.00
9257;BME280;4665;51.368;6.782;2023-05-08T09:16:42;101841.13;;;17.35;100.00
9257;BME280;4665;51.368;6.782;2023-05-08T09:19:08;101820.16;;;17.22;100.00
9257;BME280;4665;51.368;6.782;2023-05-08T09:21:33;101822.00;;;17.21;100.00
9257;BME280;4665;51.368;6.782;2023-05-08T09:24:00;101845.03;;;17.32;100.00
9257;BME280;4665;51.368;6.782;2023-05-08T09:26:32;101845.84;;;17.33;100.00
9257;BME280;4665;51.368;6.782;2023-05-08T09:31:38;101839.47;;;17.25;100.00
9257;BME280;4665;51.368;6.782;2023-05-08T09:34:08;101839.00;;;17.22;100.00
9257;BME280;4665;51.368;6.782;2023-05-08T09:36:33;101847.25;;;17.20;100.00
9257;BME280;4665;51.368;6.782;2023-05-08T09:39:00;101854.81;;;17.25;100.00
9257;BME280;4665;51.368;6.782;2023-05-08T09:41:25;101848.25;;;17.28;100.00
9257;BME280;4665;51.368;6.782;2023-05-08T09:44:03;101843.53;;;17.30;100.00
9257;BME280;4665;51.368;6.782;2023-05-08T09:46:29;101849.56;;;17.32;100.00
9257;BME280;4665;51.368;6.782;2023-05-08T09:48:57;101851.25;;;17.33;100.00
9257;BME280;4665;51.368;6.782;2023-05-08T09:51:24;101854.25;;;17.38;100.00
9257;BME280;4665;51.368;6.782;2023-05-08T09:53:53;101848.88;;;17.38;100.00
9257;BME280;4665;51.368;6.782;2023-05-08T09:56:36;101856.94;;;17.38;100.00
9257;BME280;4665;51.368;6.782;2023-05-08T09:59:04;101847.88;;;17.39;100.00
9257;BME280;4665;51.368;6.782;2023-05-08T10:01:45;101852.59;;;17.37;100.00
9257;BME280;4665;51.368;6.782;2023-05-08T10:04:12;101837.09;;;17.31;100.00
9257;BME280;4665;51.368;6.782;2023-05-08T10:06:38;101849.56;;;17.32;100.00
9257;BME280;4665;51.368;6.782;2023-05-08T10:09:14;101847.41;;;17.27;100.00
9257;BME280;4665;51.368;6.782;2023-05-08T10:11:41;101845.22;;;17.22;100.00
9257;BME280;4665;51.368;6.782;2023-05-08T10:14:07;101843.88;;;17.18;100.00
9257;BME280;4665;51.368;6.782;2023-05-08T10:16:42;101837.16;;;17.14;100.00
9257;BME280;4665;51.368;6.782;2023-05-08T10:19:12;101839.38;;;17.11;100.00
9257;BME280;4665;51.368;6.782;2023-05-08T10:21:40;101839.88;;;17.06;100.00
9257;BME280;4665;51.368;6.782;2023-05-08T10:24:13;101839.88;;;17.06;100.00
9257;BME280;4665;51.368;6.782;2023-05-08T10:26:42;101851.84;;;17.03;100.00
9257;BME280;4665;51.368;6.782;2023-05-08T10:29:14;101844.91;;;17.01;100.00
9257;BME280;4665;51.368;6.782;2023-05-08T10:31:43;101844.91;;;17.01;100.00
9257;BME280;4665;51.368;6.782;2023-05-08T10:34:13;101840.22;;;17.03;100.00
9257;BME280;4665;51.368;6.782;2023-05-08T10:36:41;101837.34;;;17.04;100.00
9257;BME280;4665;51.368;6.782;2023-05-08T10:39:07;101845.28;;;17.06;100.00
9257;BME280;4665;51.368;6.782;2023-05-08T10:41:35;101826.59;;;17.04;100.00
9257;BME280;4665;51.368;6.782;2023-05-08T10:44:01;101823.38;;;17.09;100.00
9257;BME280;4665;51.368;6.782;2023-05-08T10:49:15;101830.75;;;17.23;100.00
9257;BME280;4665;51.368;6.782;2023-05-08T10:51:51;101834.41;;;17.31;100.00
9257;BME280;4665;51.368;6.782;2023-05-08T10:54:25;101828.34;;;17.37;100.00
9257;BME280;4665;51.368;6.782;2023-05-08T10:57:07;101826.47;;;17.45;100.00
9257;BME280;4665;51.368;6.782;2023-05-08T10:59:34;101826.78;;;17.51;100.00
9257;BME280;4665;51.368;6.782;2023-05-08T11:02:04;101832.31;;;17.57;100.00
9257;BME280;4665;51.368;6.782;2023-05-08T11:04:31;101819.50;;;17.59;100.00
9257;BME280;4665;51.368;6.782;2023-05-08T11:06:57;101825.19;;;17.64;100.00
9257;BME280;4665;51.368;6.782;2023-05-08T11:09:44;101822.81;;;17.70;100.00
9257;BME280;4665;51.368;6.782;2023-05-08T11:12:22;101827.50;;;17.76;100.00
9257;BME280;4665;51.368;6.782;2023-05-08T11:15:02;101813.66;;;17.79;100.00
9257;BME280;4665;51.368;6.782;2023-05-08T11:17:30;101820.41;;;17.83;100.00
9257;BME280;4665;51.368;6.782;2023-05-08T11:19:58;101809.78;;;17.90;100.00
9257;BME280;4665;51.368;6.782;2023-05-08T11:22:25;101815.28;;;17.96;100.00
9257;BME280;4665;51.368;6.782;2023-05-08T11:27:30;101806.34;;;17.96;100.00
9257;BME280;4665;51.368;6.782;2023-05-08T11:40:49;101795.66;;;18.11;100.00
9257;BME280;4665;51.368;6.782;2023-05-08T11:46:22;101796.59;;;18.18;100.00
9257;BME280;4665;51.368;6.782;2023-05-08T11:48:48;101787.13;;;18.22;100.00
9257;BME280;4665;51.368;6.782;2023-05-08T11:51:16;101785.06;;;18.24;100.00
9257;BME280;4665;51.368;6.782;2023-05-08T11:53:42;101783.69;;;18.28;100.00
9257;BME280;4665;51.368;6.782;2023-05-08T11:56:08;101777.28;;;18.29;100.00
9257;BME280;4665;51.368;6.782;2023-05-08T11:58:34;101778.97;;;18.30;100.00
9257;BME280;4665;51.368;6.782;2023-05-08T12:01:01;101775.44;;;18.29;100.00
9257;BME280;4665;51.368;6.782;2023-05-08T12:03:26;101785.50;;;18.36;100.00
9257;BME280;4665;51.368;6.782;2023-05-08T12:05:55;101785.97;;;18.39;100.00
9257;BME280;4665;51.368;6.782;2023-05-08T12:08:21;101778.25;;;18.36;100.00
9257;BME280;4665;51.368;6.782;2023-05-08T12:15:46;101777.44;;;18.50;100.00
9257;BME280;4665;51.368;6.782;2023-05-08T12:18:12;101771.66;;;18.54;100.00
9257;BME280;4665;51.368;6.782;2023-05-08T12:20:38;101771.50;;;18.55;100.00
9257;BME280;4665;51.368;6.782;2023-05-08T12:23:04;101773.16;;;18.56;100.00
9257;BME280;4665;51.368;6.782;2023-05-08T12:25:29;101771.94;;;18.59;100.00
9257;BME280;4665;51.368;6.782;2023-05-08T12:27:55;101769.25;;;18.59;100.00
9257;BME280;4665;51.368;6.782;2023-05-08T12:30:21;101769.91;;;18.61;100.00
9257;BME280;4665;51.368;6.782;2023-05-08T12:32:46;101768.91;;;18.62;100.00
9257;BME280;4665;51.368;6.782;2023-05-08T12:35:13;101780.34;;;18.64;100.00
9257;BME280;4665;51.368;6.782;2023-05-08T12:37:39;101771.59;;;18.62;100.00
9257;BME280;4665;51.368;6.782;2023-05-08T12:40:05;101775.41;;;18.67;100.00
9257;BME280;4665;51.368;6.782;2023-05-08T12:42:44;101773.66;;;18.75;100.00
9257;BME280;4665;51.368;6.782;2023-05-08T12:45:24;101771.47;;;18.78;100.00
9257;BME280;4665;51.368;6.782;2023-05-08T12:47:52;101767.38;;;18.82;100.00
9257;BME280;4665;51.368;6.782;2023-05-08T12:50:19;101768.22;;;18.83;100.00
9257;BME280;4665;51.368;6.782;2023-05-08T12:52:46;101759.06;;;18.84;100.00
9257;BME280;4665;51.368;6.782;2023-05-08T12:55:25;101761.22;;;18.88;100.00
9257;BME280;4665;51.368;6.782;2023-05-08T12:58:17;101755.81;;;18.88;100.00
9257;BME280;4665;51.368;6.782;2023-05-08T13:00:45;101750.06;;;18.91;100.00
9257;BME280;4665;51.368;6.782;2023-05-08T13:03:13;101754.72;;;18.98;100.00
9257;BME280;4665;51.368;6.782;2023-05-08T13:05:45;101752.22;;;18.96;100.00
9257;BME280;4665;51.368;6.782;2023-05-08T13:08:10;101750.13;;;18.98;100.00
9257;BME280;4665;51.368;6.782;2023-05-08T13:10:52;101748.75;;;19.02;100.00
9257;BME280;4665;51.368;6.782;2023-05-08T13:13:22;101747.09;;;19.01;100.00
9257;BME280;4665;51.368;6.782;2023-05-08T13:15:52;101738.41;;;19.06;100.00
9257;BME280;4665;51.368;6.782;2023-05-08T13:18:19;101735.72;;;19.06;100.00
9257;BME280;4665;51.368;6.782;2023-05-08T13:20:44;101736.56;;;19.06;100.00
9257;BME280;4665;51.368;6.782;2023-05-08T13:23:10;101738.22;;;19.07;100.00
9257;BME280;4665;51.368;6.782;2023-05-08T13:25:37;101736.56;;;19.06;100.00
9257;BME280;4665;51.368;6.782;2023-05-08T13:28:04;101727.78;;;19.04;100.00
9257;BME280;4665;51.368;6.782;2023-05-08T13:30:30;101731.31;;;19.05;100.00
9257;BME280;4665;51.368;6.782;2023-05-08T13:32:56;101733.03;;;19.06;100.00
9257;BME280;4665;51.368;6.782;2023-05-08T13:35:22;101722.66;;;19.09;100.00
9257;BME280;4665;51.368;6.782;2023-05-08T13:37:50;101716.91;;;19.12;100.00
9257;BME280;4665;51.368;6.782;2023-05-08T13:40:16;101727.97;;;19.18;100.00
9257;BME280;4665;51.368;6.782;2023-05-08T13:42:42;101723.88;;;19.22;100.00
9257;BME280;4665;51.368;6.782;2023-05-08T13:45:08;101726.00;;;19.26;100.00
9257;BME280;4665;51.368;6.782;2023-05-08T13:47:35;101715.56;;;19.38;100.00
9257;BME280;4665;51.368;6.782;2023-05-08T13:50:01;101726.31;;;19.53;100.00
9257;BME280;4665;51.368;6.782;2023-05-08T13:52:26;101717.16;;;19.90;100.00